Strona główna
METAR-TAF:

METAR-TAF

Lotnisko :

Port lotniczy Rundu

Rundu, Namibia

Szerokość geograficzna: 17-57-20S, Długość geograficzna: 019-43-25E, wysokość: 1106 m

Aktualna obserwacja pogody

Raport powstał 28 minut temu, godzina 00:00 UTC
Wiatr 3 kt od południowo-południowy wschód
Temperatura 21°C
Wilgotność 21%
Ciśnienie 1022 hPa

METAR: FYRU 170000Z AUTO 15003KT //// // ////// 21/M02 Q1022

czas: 02:28 (00:28 UTC)

Prognoza

Raport powstał 1 godzina i 28 minut temu, godzina 23:00 UTC
Prognoza ważna od 17 godzina 00 UTC do 17 godzina 09 UTC
Wiatr 6 kt od wschodnio-południowy wschód
Widzialność 10 km lub więcej
Brak chmur poniżej 1500 m i brak chmur cumulonimbus

TAF: FYRU 162300Z 1700/1709 11006KT CAVOK

Obserwacja i prognoza pogody dla ponad 4000 lotnisk (raport METAR i TAF).

Dostępne stacje oznaczono żółtymi i czerwonymi punktami na mapie.

Najedź kursorem aby zobaczyć nazwę stacji.

Kliknij aby zobaczyć obserwacje i prognozy pogody.

Aby zmienić mapę: kliknij na zielony przycisk z czarnym krzyżykiem, aby powiększyć; na zielony przycisk z myślnikiem, aby pomniejszyć; na zielone strzałki, aby przejść do map sąsiednich.


METAR-TAF: